Time;durP1;ratioP1;P1;durP2;ratioP2;P2;SDS_P1;SDS_P2;PMS_P1;PMS_P2;Temp;Humidity;BMP_temperature;BMP_pressure;BME280_temperature;BME280_humidity;BME280_pressure;Samples;Min_cycle;Max_cycle;Signal;HPM_P1;HPM_P2
2021/04/05 00:02:22;;;;;;;0.77;0.30;;;;;;;5.07;100.00;100198.72;5052384;28;20076;-72
2021/04/05 00:04:48;;;;;;;0.20;0.20;;;;;;;5.41;100.00;100239.94;5052330;28;20028;-72
2021/04/05 00:07:13;;;;;;;1.85;0.40;;;;;;;5.26;100.00;100225.25;5053014;28;20035;-72
2021/04/05 00:09:40;;;;;;;0.30;0.30;;;;;;;5.15;100.00;100202.50;5052580;28;20020;-72
2021/04/05 00:12:10;;;;;;;0.70;0.40;;;;;;;5.37;100.00;100241.06;5052500;28;20029;-72
2021/04/05 00:14:41;;;;;;;2.15;0.77;;;;;;;5.37;100.00;100233.25;5052567;28;20024;-72
2021/04/05 00:17:06;;;;;;;1.98;1.08;;;;;;;5.25;100.00;100217.56;5052381;28;20033;-72
2021/04/05 00:19:33;;;;;;;2.13;0.85;;;;;;;4.96;100.00;100191.56;5052420;28;20381;-72
2021/04/05 00:21:59;;;;;;;1.30;0.75;;;;;;;4.89;100.00;100175.53;5052413;28;20024;-72
2021/04/05 00:24:25;;;;;;;1.52;0.90;;;;;;;4.91;100.00;100178.84;5052488;28;20028;-72
2021/04/05 00:26:50;;;;;;;0.90;0.50;;;;;;;4.78;100.00;100188.28;5052250;28;20447;-72
2021/04/05 00:29:16;;;;;;;1.95;0.85;;;;;;;5.00;100.00;100219.03;5052278;28;20036;-72
2021/04/05 00:31:41;;;;;;;1.50;0.60;;;;;;;5.12;100.00;100222.66;5052488;28;20021;-72
2021/04/05 00:34:07;;;;;;;1.40;0.80;;;;;;;5.17;100.00;100212.84;5052477;28;20040;-72
2021/04/05 00:36:32;;;;;;;1.58;0.32;;;;;;;5.21;100.00;100216.91;5052382;28;20029;-72
2021/04/05 00:38:58;;;;;;;1.38;0.60;;;;;;;5.17;100.00;100223.22;5052060;28;20021;-72
2021/04/05 00:41:24;;;;;;;1.42;0.45;;;;;;;5.17;100.00;100210.25;5052415;28;20025;-72
2021/04/05 00:43:51;;;;;;;0.38;0.30;;;;;;;5.11;100.00;100208.00;5054649;28;20028;-72
2021/04/05 00:46:25;;;;;;;0.38;0.38;;;;;;;4.92;100.00;100205.66;5056250;28;20167;-72
2021/04/05 00:48:51;;;;;;;0.40;0.25;;;;;;;5.08;100.00;100231.56;5056563;28;20032;-72
2021/04/05 00:51:24;;;;;;;0.20;0.20;;;;;;;4.85;100.00;100186.16;5056544;28;20117;-72
2021/04/05 00:53:51;;;;;;;1.05;0.25;;;;;;;5.12;100.00;100227.84;5056476;28;20029;-72
2021/04/05 00:56:20;;;;;;;0.93;0.30;;;;;;;4.92;100.00;100190.91;5056191;28;20025;-72
2021/04/05 00:58:47;;;;;;;1.07;0.43;;;;;;;4.98;100.00;100216.50;5055911;28;20021;-72
2021/04/05 01:01:18;;;;;;;0.93;0.40;;;;;;;4.92;100.00;100206.47;5055738;28;20049;-72
2021/04/05 01:03:44;;;;;;;1.92;0.45;;;;;;;4.95;100.00;100223.66;5055796;28;20494;-72
2021/04/05 01:06:14;;;;;;;1.33;0.60;;;;;;;5.01;100.00;100217.28;5054698;28;20507;-72
2021/04/05 01:08:40;;;;;;;1.83;0.75;;;;;;;4.84;100.00;100198.31;5056015;28;20021;-72
2021/04/05 01:11:07;;;;;;;1.95;0.80;;;;;;;5.00;100.00;100226.84;5055517;28;20044;-73
2021/04/05 01:13:32;;;;;;;1.38;0.70;;;;;;;5.06;100.00;100217.81;5056014;28;20025;-72
2021/04/05 01:15:58;;;;;;;1.38;0.60;;;;;;;5.03;100.00;100210.19;5055740;28;20396;-72
2021/04/05 01:18:24;;;;;;;1.63;0.80;;;;;;;4.98;100.00;100215.69;5054906;28;20025;-73
2021/04/05 01:20:50;;;;;;;1.83;0.75;;;;;;;4.96;100.00;100213.19;5054995;28;20021;-72
2021/04/05 01:23:20;;;;;;;2.55;1.17;;;;;;;4.76;100.00;100184.97;5054556;28;20025;-72
2021/04/05 01:25:46;;;;;;;4.82;1.20;;;;;;;5.00;100.00;100216.44;5054797;28;20032;-72
2021/04/05 01:28:12;;;;;;;3.28;2.05;;;;;;;4.92;100.00;100218.63;5055533;28;20370;-72
2021/04/05 01:30:41;;;;;;;2.08;1.02;;;;;;;4.92;100.00;100211.69;5053757;28;20037;-72
2021/04/05 01:33:11;;;;;;;2.53;1.20;;;;;;;4.98;100.00;100224.31;5055538;28;20032;-72
2021/04/05 01:35:47;;;;;;;1.27;0.90;;;;;;;4.97;100.00;100225.25;5053978;28;20036;-72
2021/04/05 01:38:17;;;;;;;1.90;0.75;;;;;;;4.84;100.00;100213.06;5055370;28;20045;-71
2021/04/05 01:40:46;;;;;;;0.80;0.68;;;;;;;4.76;100.00;100190.16;5055287;28;20039;-72
2021/04/05 01:43:12;;;;;;;3.08;0.52;;;;;;;4.92;100.00;100219.47;5054991;28;20052;-72
2021/04/05 01:45:38;;;;;;;1.63;0.40;;;;;;;4.79;100.00;100194.31;5055365;28;20068;-72
2021/04/05 01:48:04;;;;;;;1.15;0.75;;;;;;;4.99;100.00;100225.13;5055080;28;20031;-72
2021/04/05 01:50:30;;;;;;;1.50;0.50;;;;;;;5.00;100.00;100223.41;5055132;28;20021;-72
2021/04/05 01:52:55;;;;;;;1.17;0.50;;;;;;;5.01;100.00;100227.66;5054962;28;20477;-72
2021/04/05 01:55:21;;;;;;;0.88;0.50;;;;;;;4.71;100.00;100182.63;5055068;28;20033;-72
2021/04/05 01:57:49;;;;;;;1.45;0.50;;;;;;;4.74;100.00;100181.63;5055217;28;20197;-72
2021/04/05 02:00:20;;;;;;;2.33;0.73;;;;;;;4.77;100.00;100207.41;5054820;28;20039;-72
2021/04/05 02:02:46;;;;;;;1.52;0.80;;;;;;;4.78;100.00;100218.63;5054892;28;20025;-72
2021/04/05 02:05:12;;;;;;;0.82;0.55;;;;;;;4.74;100.00;100217.97;5054748;28;20028;-72
2021/04/05 02:07:39;;;;;;;0.98;0.80;;;;;;;4.57;100.00;100189.56;5054693;28;20504;-72
2021/04/05 02:10:08;;;;;;;1.00;0.65;;;;;;;4.39;100.00;100189.72;5054676;28;20108;-72
2021/04/05 02:12:35;;;;;;;0.77;0.50;;;;;;;4.70;100.00;100232.06;5055022;28;20461;-72
2021/04/05 02:15:01;;;;;;;2.42;0.65;;;;;;;4.69;100.00;100218.25;5054641;28;20104;-72
2021/04/05 02:17:26;;;;;;;0.98;0.55;;;;;;;4.45;100.00;100185.91;5054664;28;20017;-72
2021/04/05 02:19:52;;;;;;;0.88;0.55;;;;;;;4.34;100.00;100181.34;5054355;28;20512;-72
2021/04/05 02:22:17;;;;;;;0.93;0.70;;;;;;;4.67;100.00;100221.84;5054895;28;20017;-72
2021/04/05 02:24:43;;;;;;;0.90;0.50;;;;;;;4.72;100.00;100225.00;5054552;28;20025;-72
2021/04/05 02:27:09;;;;;;;0.90;0.70;;;;;;;4.44;100.00;100194.63;5054615;28;20021;-72
2021/04/05 02:29:35;;;;;;;1.15;0.70;;;;;;;4.71;100.00;100226.75;5054602;28;20104;-72
2021/04/05 02:32:00;;;;;;;2.60;0.57;;;;;;;4.50;100.00;100189.91;5066473;28;20036;-72
2021/04/05 02:34:26;;;;;;;1.52;0.80;;;;;;;4.57;100.00;100223.31;5074474;28;20502;-71
2021/04/05 02:36:51;;;;;;;1.00;0.80;;;;;;;4.44;100.00;100221.41;5074055;28;20116;-72
2021/04/05 02:39:17;;;;;;;8.73;1.23;;;;;;;4.59;100.00;100231.81;5073948;28;20453;-71
2021/04/05 02:41:44;;;;;;;1.95;1.13;;;;;;;4.67;100.00;100232.22;5073585;28;20059;-72
2021/04/05 02:44:11;;;;;;;1.10;0.90;;;;;;;4.54;100.00;100233.88;5072517;28;20025;-72
2021/04/05 02:46:38;;;;;;;2.10;1.30;;;;;;;4.33;100.00;100197.00;5072425;28;20032;-72
2021/04/05 02:49:10;;;;;;;3.38;1.15;;;;;;;4.24;100.00;100195.75;5072276;28;20680;-72
2021/04/05 02:51:41;;;;;;;2.47;1.50;;;;;;;4.22;100.00;100198.44;5072566;28;20115;-72
2021/04/05 02:54:07;;;;;;;3.00;1.67;;;;;;;4.37;100.00;100227.88;5071137;28;20020;-72
2021/04/05 02:56:36;;;;;;;2.75;1.60;;;;;;;4.45;100.00;100249.00;5072153;28;20066;-72
2021/04/05 02:59:01;;;;;;;2.85;1.42;;;;;;;4.45;100.00;100254.22;5071353;28;20032;-72
2021/04/05 03:01:27;;;;;;;2.80;1.30;;;;;;;4.22;100.00;100208.81;5070069;28;20052;-72
2021/04/05 03:03:57;;;;;;;9.80;6.45;;;;;;;4.48;100.00;100258.41;5052607;28;20028;-71
2021/04/05 03:06:24;;;;;;;31.95;20.58;;;;;;;4.46;100.00;100255.06;5052619;28;20063;-71
2021/04/05 03:08:50;;;;;;;15.75;10.43;;;;;;;4.50;100.00;100257.41;5052900;28;20036;-72
2021/04/05 03:11:20;;;;;;;4.78;1.60;;;;;;;4.24;100.00;100225.13;5053034;28;20028;-72
2021/04/05 03:13:46;;;;;;;2.97;1.50;;;;;;;4.39;100.00;100258.94;5051617;28;20032;-72
2021/04/05 03:16:17;;;;;;;2.83;1.52;;;;;;;4.08;100.00;100239.88;5052606;28;20021;-72
2021/04/05 03:18:45;;;;;;;3.00;1.63;;;;;;;4.22;100.00;100257.28;5053218;28;20446;-72
2021/04/05 03:21:12;;;;;;;3.50;1.92;;;;;;;4.06;100.00;100243.50;5053376;28;20074;-72
2021/04/05 03:23:42;;;;;;;3.10;1.80;;;;;;;4.18;100.00;100271.31;5053228;28;20036;-72
2021/04/05 03:26:08;;;;;;;2.85;1.58;;;;;;;4.27;100.00;100268.22;5050513;28;20435;-72
2021/04/05 03:28:33;;;;;;;2.58;1.50;;;;;;;3.83;100.00;100193.72;5051677;28;20029;-72
2021/04/05 03:31:01;;;;;;;2.92;1.50;;;;;;;4.33;100.00;100282.63;5051529;28;20116;-72
2021/04/05 03:33:41;;;;;;;2.72;1.60;;;;;;;4.23;100.00;100283.13;5051835;28;20550;-72
2021/04/05 03:36:24;;;;;;;2.75;1.83;;;;;;;4.14;100.00;100243.88;5051994;28;20040;-72
2021/04/05 03:38:50;;;;;;;2.67;1.60;;;;;;;4.15;100.00;100235.19;5051576;28;20029;-72
2021/04/05 03:41:27;;;;;;;3.10;1.83;;;;;;;4.34;100.00;100259.19;5052975;28;20492;-72
2021/04/05 03:44:01;;;;;;;3.42;1.90;;;;;;;4.14;100.00;100251.66;5052824;28;20031;-72
2021/04/05 03:46:31;;;;;;;2.38;1.63;;;;;;;4.05;100.00;100246.97;5052797;28;20068;-72
2021/04/05 03:49:41;;;;;;;5.25;1.80;;;;;;;4.20;100.00;100280.69;5052820;28;20032;-72
2021/04/05 03:52:18;;;;;;;2.90;1.58;;;;;;;3.91;100.00;100248.56;5054004;28;20059;-72
2021/04/05 03:54:47;;;;;;;2.83;1.65;;;;;;;4.13;100.00;100281.13;5053026;28;20025;-72
2021/04/05 03:57:16;;;;;;;3.47;2.13;;;;;;;4.06;100.00;100274.63;5051479;28;20116;-72
2021/04/05 03:59:49;;;;;;;3.13;1.83;;;;;;;3.94;100.00;100273.50;5052975;28;20025;-72
2021/04/05 04:02:31;;;;;;;3.55;1.95;;;;;;;3.94;100.00;100269.16;5051975;28;20053;-72
2021/04/05 04:05:19;;;;;;;3.38;2.10;;;;;;;3.89;100.00;100262.56;5052837;28;20496;-72
2021/04/05 04:10:12;;;;;;;3.08;1.95;;;;;;;3.85;100.00;100256.72;5052429;28;20079;-72
2021/04/05 04:12:44;;;;;;;4.07;2.35;;;;;;;4.10;100.00;100282.13;5052426;28;20423;-72
2021/04/05 04:15:12;;;;;;;3.40;1.90;;;;;;;3.98;100.00;100281.06;5052662;28;20025;-72
2021/04/05 04:17:38;;;;;;;4.28;2.45;;;;;;;3.76;100.00;100254.59;5051921;28;20488;-72
2021/04/05 04:20:13;;;;;;;4.65;2.60;;;;;;;3.80;100.00;100256.09;5052313;28;20488;-72
2021/04/05 04:22:40;;;;;;;3.67;2.15;;;;;;;3.90;100.00;100277.19;5052402;28;20377;-72
2021/04/05 04:25:06;;;;;;;4.22;2.78;;;;;;;3.90;100.00;100282.38;5052335;28;20056;-72
2021/04/05 04:27:32;;;;;;;5.53;3.45;;;;;;;3.89;100.00;100266.00;5052593;28;20029;-72
2021/04/05 04:29:58;;;;;;;4.75;2.95;;;;;;;3.98;100.00;100290.56;5052443;28;20110;-71
2021/04/05 04:32:25;;;;;;;4.65;3.15;;;;;;;4.00;100.00;100292.16;5052575;28;20072;-72
2021/04/05 04:34:51;;;;;;;4.45;2.60;;;;;;;4.01;100.00;100295.59;5052338;28;20028;-72
2021/04/05 04:37:17;;;;;;;10.88;7.78;;;;;;;4.05;100.00;100307.50;5052146;28;20123;-72
2021/04/05 04:39:43;;;;;;;7.57;5.25;;;;;;;4.04;100.00;100311.00;5052233;28;20104;-72
2021/04/05 04:42:10;;;;;;;5.65;3.42;;;;;;;3.84;100.00;100260.19;5052223;28;20536;-72
2021/04/05 04:44:36;;;;;;;3.70;2.17;;;;;;;4.00;100.00;100289.56;5052043;28;20057;-72
2021/04/05 04:47:02;;;;;;;5.13;3.15;;;;;;;3.97;100.00;100284.53;5052041;28;20091;-71
2021/04/05 04:49:28;;;;;;;5.57;3.45;;;;;;;3.92;100.00;100270.19;5050818;28;20522;-71
2021/04/05 04:51:53;;;;;;;4.43;2.65;;;;;;;3.68;100.00;100220.47;5052077;28;20033;-72
2021/04/05 04:54:18;;;;;;;8.77;6.07;;;;;;;4.13;100.00;100288.91;5052341;28;20125;-72
2021/04/05 04:56:44;;;;;;;7.10;4.70;;;;;;;4.19;100.00;100288.59;5052011;28;20415;-71
2021/04/05 04:59:11;;;;;;;7.05;4.95;;;;;;;4.20;100.00;100298.03;5051877;28;20044;-71
2021/04/05 05:01:39;;;;;;;4.50;2.95;;;;;;;4.29;100.00;100305.31;5051902;28;20548;-71
2021/04/05 05:04:08;;;;;;;3.47;2.25;;;;;;;4.26;100.00;100295.94;5051902;28;20496;-71
2021/04/05 05:06:35;;;;;;;3.45;2.17;;;;;;;4.00;100.00;100266.22;5050676;28;20040;-71
2021/04/05 05:09:02;;;;;;;4.05;2.53;;;;;;;3.97;100.00;100261.22;5051757;28;20040;-71
2021/04/05 05:11:28;;;;;;;4.00;2.42;;;;;;;3.97;100.00;100269.00;5050825;28;20025;-71
2021/04/05 05:13:56;;;;;;;4.65;3.25;;;;;;;4.39;100.00;100321.22;5049881;28;20029;-71
2021/04/05 05:16:22;;;;;;;3.85;2.50;;;;;;;4.36;100.00;100311.00;5049842;28;20507;-71
2021/04/05 05:18:48;;;;;;;6.50;4.18;;;;;;;4.47;100.00;100314.66;5050831;28;20024;-71
2021/04/05 05:21:20;;;;;;;5.78;4.15;;;;;;;4.57;100.00;100321.94;5050980;28;20025;-71
2021/04/05 05:23:46;;;;;;;4.60;3.00;;;;;;;4.42;100.00;100290.75;5046989;28;20022;-71
2021/04/05 05:26:13;;;;;;;5.65;3.42;;;;;;;4.49;100.00;100268.72;5032163;28;20033;-71
2021/04/05 05:28:40;;;;;;;7.63;4.88;;;;;;;4.66;100.00;100288.50;5033398;28;20035;-71
2021/04/05 05:31:06;;;;;;;4.53;2.70;;;;;;;4.87;100.00;100320.19;5054115;28;20024;-71
2021/04/05 05:33:33;;;;;;;4.55;2.65;;;;;;;4.88;100.00;100321.03;5055272;28;20037;-70
2021/04/05 05:36:00;;;;;;;4.60;2.83;;;;;;;4.70;100.00;100297.78;5055625;28;20535;-70
2021/04/05 05:38:27;;;;;;;7.70;6.07;;;;;;;4.72;100.00;100295.09;5055345;28;20029;-70
2021/04/05 05:40:54;;;;;;;4.95;3.13;;;;;;;4.61;100.00;100292.28;5055411;28;20056;-71
2021/04/05 05:43:30;;;;;;;4.88;3.03;;;;;;;4.70;100.00;100304.75;5053591;28;20025;-71
2021/04/05 05:45:55;;;;;;;6.88;4.75;;;;;;;4.86;100.00;100338.44;5052943;28;20059;-71
2021/04/05 05:48:24;;;;;;;23.02;14.77;;;;;;;5.00;100.00;100337.69;5054763;28;20024;-70
2021/04/05 05:51:18;;;;;;;5.80;3.42;;;;;;;5.08;100.00;100325.09;5053867;28;20063;-70
2021/04/05 05:54:02;;;;;;;4.65;2.90;;;;;;;5.15;100.00;100326.41;5038995;28;20508;-70
2021/04/05 05:56:37;;;;;;;107.07;59.70;;;;;;;5.27;100.00;100324.84;5055113;28;20104;-70
2021/04/05 05:59:02;;;;;;;7.50;4.95;;;;;;;5.30;100.00;100341.09;5054571;28;20044;-70
2021/04/05 06:01:36;;;;;;;6.20;3.92;;;;;;;5.16;100.00;100344.50;5054464;28;20471;-70
2021/04/05 06:04:29;;;;;;;8.82;5.65;;;;;;;5.25;100.00;100343.13;5050460;28;20032;-70
2021/04/05 06:07:00;;;;;;;5.93;4.68;;;;;;;5.29;100.00;100346.38;5080944;28;20087;-70
2021/04/05 06:09:37;;;;;;;6.22;4.20;;;;;;;5.24;100.00;100351.03;5054007;28;20435;-70
2021/04/05 06:12:07;;;;;;;6.30;3.85;;;;;;;5.19;100.00;100353.88;5053056;28;20039;-70
2021/04/05 06:14:51;;;;;;;7.18;3.80;;;;;;;5.13;100.00;100352.47;5054702;28;20035;-70
2021/04/05 06:17:42;;;;;;;6.65;3.95;;;;;;;5.08;100.00;100364.03;5055149;28;20033;-70
2021/04/05 06:20:18;;;;;;;7.10;4.30;;;;;;;5.10;100.00;100362.22;5060380;28;20049;-70
2021/04/05 06:23:21;;;;;;;7.95;5.63;;;;;;;5.16;100.00;100369.63;5054583;28;20029;-70
2021/04/05 06:25:50;;;;;;;10.77;6.93;;;;;;;5.33;100.00;100376.44;5054504;28;20099;-70
2021/04/05 06:28:32;;;;;;;7.35;5.15;;;;;;;5.49;100.00;100379.00;5054302;28;20504;-70
2021/04/05 06:31:06;;;;;;;7.05;5.07;;;;;;;5.54;100.00;100385.59;5055019;28;20025;-70
2021/04/05 06:33:34;;;;;;;7.53;5.45;;;;;;;5.37;100.00;100341.56;5054535;28;20057;-70
2021/04/05 06:36:12;;;;;;;6.68;4.45;;;;;;;5.61;100.00;100379.09;5054271;28;20086;-70
2021/04/05 06:38:40;;;;;;;6.72;4.57;;;;;;;5.50;100.00;100388.47;5053577;28;20507;-70
2021/04/05 06:41:24;;;;;;;14.23;9.60;;;;;;;5.55;100.00;100382.06;5053324;28;20029;-70
2021/04/05 06:44:22;;;;;;;6.95;4.70;;;;;;;5.50;100.00;100391.91;5054113;28;20112;-70
2021/04/05 06:47:06;;;;;;;7.47;4.70;;;;;;;5.35;100.00;100375.44;5051888;28;20538;-70
2021/04/05 06:49:34;;;;;;;7.63;4.78;;;;;;;5.15;100.00;100352.38;5054245;28;20108;-70
2021/04/05 06:52:24;;;;;;;8.02;5.03;;;;;;;5.52;100.00;100378.81;5048724;28;20045;-72
2021/04/05 06:55:27;;;;;;;7.78;4.88;;;;;;;5.70;100.00;100380.31;5045033;28;20040;-74
2021/04/05 06:58:01;;;;;;;19.58;13.43;;;;;;;5.91;100.00;100386.84;5048546;28;20037;-71
2021/04/05 07:00:33;;;;;;;6.78;4.45;;;;;;;6.20;100.00;100386.00;5048027;28;20029;-70
2021/04/05 07:03:16;;;;;;;7.55;4.75;;;;;;;6.56;100.00;100390.69;5048108;28;20032;-71
2021/04/05 07:06:11;;;;;;;7.55;4.70;;;;;;;6.85;100.00;100388.81;5048520;28;20025;-70
2021/04/05 07:08:50;;;;;;;6.78;4.10;;;;;;;6.90;100.00;100389.38;5044250;28;20107;-71
2021/04/05 07:11:16;;;;;;;7.05;4.43;;;;;;;7.16;100.00;100405.09;5045879;28;20033;-70
2021/04/05 07:13:58;;;;;;;6.82;3.88;;;;;;;7.08;100.00;100372.53;5048706;28;20044;-70
2021/04/05 07:16:41;;;;;;;5.97;3.70;;;;;;;7.32;100.00;100395.31;5046373;28;20043;-71
2021/04/05 07:19:16;;;;;;;7.63;4.70;;;;;;;7.40;100.00;100400.88;5048395;28;20029;-71
2021/04/05 07:22:19;;;;;;;7.10;4.28;;;;;;;7.36;100.00;100395.94;5047988;28;20037;-69
2021/04/05 07:25:00;;;;;;;6.10;3.92;;;;;;;7.10;100.00;100312.50;5041232;28;20411;-70
2021/04/05 07:27:37;;;;;;;4.75;3.42;;;;;;;7.91;100.00;100402.66;5045610;28;20036;-70
2021/04/05 07:30:34;;;;;;;5.30;3.10;;;;;;;8.25;100.00;100402.00;5046006;28;20121;-70
2021/04/05 07:33:06;;;;;;;4.63;2.40;;;;;;;8.77;100.00;100412.31;5043340;28;20036;-70
2021/04/05 07:35:47;;;;;;;3.65;2.25;;;;;;;9.00;100.00;100411.50;5062677;28;20458;-72
2021/04/05 07:38:24;;;;;;;4.28;2.70;;;;;;;8.83;100.00;100410.09;5051046;28;20443;-70
2021/04/05 07:41:00;;;;;;;3.70;2.25;;;;;;;9.03;100.00;100418.28;5045986;28;20691;-71
2021/04/05 07:43:31;;;;;;;3.08;1.83;;;;;;;9.33;100.00;100425.66;5047100;28;20036;-70
2021/04/05 07:46:17;;;;;;;3.47;1.95;;;;;;;9.50;100.00;100417.38;5047324;28;20028;-70
2021/04/05 07:49:01;;;;;;;5.28;2.28;;;;;;;9.50;100.00;100411.31;5041052;28;20511;-70
2021/04/05 07:51:48;;;;;;;2.65;1.88;;;;;;;9.73;100.00;100409.59;5046505;28;20033;-71
2021/04/05 07:54:17;;;;;;;2.65;1.77;;;;;;;9.80;100.00;100410.78;5044962;28;20458;-70
2021/04/05 07:56:58;;;;;;;5.40;3.42;;;;;;;9.87;100.00;100409.38;5046986;28;20493;-70
2021/04/05 07:59:41;;;;;;;3.28;1.92;;;;;;;9.90;100.00;100420.44;5046905;28;20040;-70
2021/04/05 08:02:43;;;;;;;3.90;2.00;;;;;;;10.02;100.00;100429.13;5043873;28;20512;-71
2021/04/05 08:05:18;;;;;;;3.17;1.70;;;;;;;9.86;100.00;100428.66;5047049;28;20064;-70
2021/04/05 08:07:52;;;;;;;2.13;1.35;;;;;;;9.98;100.00;100434.72;5047397;28;20432;-71
2021/04/05 08:10:46;;;;;;;2.58;1.50;;;;;;;10.11;100.00;100441.50;5047186;28;20040;-70
2021/04/05 08:13:21;;;;;;;5.70;1.92;;;;;;;10.26;100.00;100442.16;5045594;28;20058;-68
2021/04/05 08:16:07;;;;;;;3.40;1.77;;;;;;;10.47;100.00;100442.25;5047172;28;20108;-70
2021/04/05 08:18:55;;;;;;;2.90;1.60;;;;;;;10.14;100.00;100419.50;5046397;28;20102;-71
2021/04/05 08:21:24;;;;;;;5.18;2.20;;;;;;;10.42;100.00;100444.41;5043041;28;20126;-69
2021/04/05 08:24:14;;;;;;;2.65;1.50;;;;;;;10.35;100.00;100443.22;5044833;28;20439;-70
2021/04/05 08:26:48;;;;;;;7.75;2.05;;;;;;;10.14;100.00;100435.22;5044098;28;20099;-69
2021/04/05 08:29:42;;;;;;;4.72;2.85;;;;;;;10.24;100.00;100456.28;5055935;28;20033;-71
2021/04/05 08:32:10;;;;;;;5.25;2.90;;;;;;;10.34;100.00;100449.41;5047336;28;20049;-70
2021/04/05 08:35:13;;;;;;;4.20;2.05;;;;;;;10.24;100.00;100454.50;5040055;28;20035;-70
2021/04/05 08:38:15;;;;;;;3.17;1.85;;;;;;;10.20;100.00;100444.41;5042622;28;20033;-71
2021/04/05 08:41:02;;;;;;;8.30;2.55;;;;;;;10.32;100.00;100462.63;5047146;28;20111;-70
2021/04/05 08:44:08;;;;;;;4.35;2.15;;;;;;;9.87;100.00;100419.84;5044430;28;20045;-70
2021/04/05 08:46:35;;;;;;;5.88;2.28;;;;;;;9.80;100.00;100435.19;5046329;28;20021;-69
2021/04/05 08:49:05;;;;;;;4.88;2.33;;;;;;;9.93;100.00;100461.25;5059207;28;20041;-69
2021/04/05 08:51:36;;;;;;;3.40;1.83;;;;;;;9.90;100.00;100461.50;5061910;28;20025;-69
2021/04/05 08:54:06;;;;;;;3.25;2.05;;;;;;;10.09;100.00;100453.03;5042553;28;20520;-72
2021/04/05 08:56:36;;;;;;;4.40;1.90;;;;;;;10.08;100.00;100433.88;5046736;28;20032;-70
2021/04/05 08:59:04;;;;;;;;;;;;;;;10.22;100.00;100445.91;5046860;28;20068;-71
2021/04/05 09:01:39;;;;;;;5.10;3.10;;;;;;;10.43;100.00;100448.72;5046599;28;20449;-70
2021/04/05 09:04:06;;;;;;;3.90;2.33;;;;;;;10.51;100.00;100454.16;5049048;28;20029;-70
2021/04/05 09:07:18;;;;;;;3.88;2.35;;;;;;;10.12;100.00;100376.88;5051072;28;20052;-69
2021/04/05 09:09:50;;;;;;;7.03;5.93;;;;;;;10.40;100.00;100438.47;5030063;28;20033;-69
2021/04/05 09:12:16;;;;;;;10.43;7.15;;;;;;;10.33;100.00;100448.59;5050262;28;20033;-70
2021/04/05 09:15:05;;;;;;;25.45;20.42;;;;;;;10.36;100.00;100463.22;5049871;28;20799;-69
2021/04/05 09:17:45;;;;;;;6.57;4.35;;;;;;;10.37;100.00;100460.50;5044787;28;20075;-70
2021/04/05 09:20:32;;;;;;;4.65;2.90;;;;;;;10.35;100.00;100457.13;5050889;28;20044;-70
2021/04/05 09:23:32;;;;;;;2.83;1.55;;;;;;;10.26;100.00;100430.81;5050364;28;20120;-69
2021/04/05 09:26:29;;;;;;;5.28;3.92;;;;;;;10.34;100.00;100445.00;5035495;28;20075;-70
2021/04/05 09:29:32;;;;;;;4.53;1.90;;;;;;;10.27;100.00;100453.47;5050493;28;20083;-70
2021/04/05 09:32:10;;;;;;;3.78;1.50;;;;;;;10.02;100.00;100441.38;5049859;28;20033;-70
2021/04/05 09:34:41;;;;;;;2.58;1.58;;;;;;;9.98;100.00;100447.81;5064963;28;20072;-71
2021/04/05 09:37:29;;;;;;;3.30;1.88;;;;;;;10.01;100.00;100435.31;5049830;28;20076;-69
2021/04/05 09:40:05;;;;;;;3.03;1.88;;;;;;;10.10;100.00;100445.09;5049066;28;20033;-70
2021/04/05 09:42:49;;;;;;;6.03;2.25;;;;;;;10.12;100.00;100439.72;5048844;28;20110;-70
2021/04/05 09:45:39;;;;;;;3.55;1.98;;;;;;;9.94;100.00;100440.19;5065349;28;20040;-77
2021/04/05 09:48:10;;;;;;;4.20;2.10;;;;;;;9.74;100.00;100437.44;5050078;28;20439;-71
2021/04/05 09:51:10;;;;;;;7.57;2.83;;;;;;;9.55;100.00;100402.19;5049320;28;20043;-69
2021/04/05 09:54:09;;;;;;;4.07;2.45;;;;;;;9.69;100.00;100437.78;5049715;28;20554;-70
2021/04/05 09:56:44;;;;;;;3.15;1.95;;;;;;;9.55;100.00;100404.81;5042096;28;20040;-69
2021/04/05 09:59:13;;;;;;;2.80;1.55;;;;;;;9.61;100.00;100409.56;5048526;28;20455;-70
2021/04/05 10:01:40;;;;;;;4.13;2.33;;;;;;;9.67;100.00;100423.97;5049642;28;20056;-70
2021/04/05 10:04:12;;;;;;;2.85;1.77;;;;;;;9.20;100.00;100352.50;5044137;28;20041;-70
2021/04/05 10:06:38;;;;;;;5.43;2.90;;;;;;;9.23;100.00;100353.09;5060776;28;20033;-70
2021/04/05 10:09:06;;;;;;;3.20;2.00;;;;;;;9.68;100.00;100428.25;5049684;28;20483;-69
2021/04/05 10:11:39;;;;;;;5.78;3.30;;;;;;;9.72;100.00;100403.53;5049993;28;20021;-70
2021/04/05 10:14:07;;;;;;;6.20;2.30;;;;;;;9.47;100.00;100399.31;5062199;28;20050;-70
2021/04/05 10:16:36;;;;;;;4.75;2.95;;;;;;;9.90;100.00;100433.53;5047915;28;20025;-69
2021/04/05 10:19:10;;;;;;;4.07;2.28;;;;;;;10.02;100.00;100433.53;5049003;28;20251;-70
2021/04/05 10:21:41;;;;;;;3.00;2.08;;;;;;;9.99;100.00;100432.00;5047297;28;20028;-71
2021/04/05 10:24:08;;;;;;;4.95;3.15;;;;;;;10.01;100.00;100437.94;5049379;28;20064;-70
2021/04/05 10:26:36;;;;;;;4.97;2.65;;;;;;;10.11;100.00;100433.66;5049138;28;20033;-70
2021/04/05 10:29:07;;;;;;;4.13;2.63;;;;;;;10.08;100.00;100422.59;5062135;28;20126;-70
2021/04/05 10:31:34;;;;;;;3.97;2.63;;;;;;;9.85;100.00;100406.84;5049328;28;20044;-69
2021/04/05 10:34:02;;;;;;;4.13;2.42;;;;;;;10.11;100.00;100422.34;5048151;28;20142;-71
2021/04/05 10:36:29;;;;;;;4.13;2.55;;;;;;;10.12;100.00;100422.25;5038519;28;20119;-70
2021/04/05 10:38:59;;;;;;;5.35;4.35;;;;;;;10.11;100.00;100406.63;5062198;28;20455;-70
2021/04/05 10:41:26;;;;;;;;;;;;;;;10.17;100.00;100417.47;5048197;28;20532;-70
2021/04/05 10:44:12;;;;;;;4.55;3.00;;;;;;;10.27;100.00;100416.78;5048144;28;19921;-70
2021/04/05 10:46:48;;;;;;;4.20;2.38;;;;;;;10.36;100.00;100403.81;5048587;28;20032;-71
2021/04/05 10:49:17;;;;;;;4.00;2.38;;;;;;;10.48;100.00;100404.63;5048423;28;20055;-70
2021/04/05 10:52:00;;;;;;;5.03;2.83;;;;;;;10.43;100.00;100377.09;5048502;28;20037;-69
2021/04/05 10:54:36;;;;;;;6.93;3.85;;;;;;;10.68;100.00;100405.66;5047518;28;20051;-70
2021/04/05 10:57:30;;;;;;;4.82;3.47;;;;;;;10.78;100.00;100400.50;5048479;28;20047;-70
2021/04/05 10:59:58;;;;;;;5.68;3.55;;;;;;;10.61;100.00;100363.38;5040050;28;20033;-69
2021/04/05 11:02:23;;;;;;;7.18;3.53;;;;;;;10.98;100.00;100397.09;5048389;28;20397;-70
2021/04/05 11:05:04;;;;;;;8.32;7.45;;;;;;;11.17;100.00;100379.84;5047958;28;20407;-70
2021/04/05 11:07:30;;;;;;;6.30;3.53;;;;;;;11.20;100.00;100345.50;5045520;28;20025;-69
2021/04/05 11:10:05;;;;;;;4.78;3.05;;;;;;;11.51;100.00;100344.59;5048349;28;20020;-71
2021/04/05 11:12:40;;;;;;;4.40;3.10;;;;;;;11.78;100.00;100341.41;5047043;28;20067;-70
2021/04/05 11:15:12;;;;;;;9.57;4.80;;;;;;;12.20;100.00;100354.44;5048241;28;20028;-70
2021/04/05 11:17:43;;;;;;;4.22;3.10;;;;;;;12.26;100.00;100342.59;5047483;28;20071;-69
2021/04/05 11:20:14;;;;;;;7.90;4.45;;;;;;;12.50;100.00;100350.94;5048368;28;20571;-69
2021/04/05 11:22:41;;;;;;;6.47;4.75;;;;;;;12.78;100.00;100348.47;5048100;28;20029;-69
2021/04/05 11:25:30;;;;;;;3.67;2.33;;;;;;;12.59;100.00;100357.19;5047949;28;20033;-70
2021/04/05 11:28:07;;;;;;;4.10;2.50;;;;;;;12.97;100.00;100348.47;5047829;28;20511;-70
2021/04/05 11:30:34;;;;;;;4.25;3.00;;;;;;;13.11;100.00;100351.66;5048203;28;20040;-70
2021/04/05 11:33:00;;;;;;;5.93;4.32;;;;;;;12.97;100.00;100353.72;5048016;28;20096;-69
2021/04/05 11:35:31;;;;;;;5.35;4.65;;;;;;;13.14;100.00;100322.44;5048050;28;20029;-69
2021/04/05 11:38:01;;;;;;;8.05;7.25;;;;;;;13.39;100.00;100353.44;5047973;28;20043;-69
2021/04/05 11:40:30;;;;;;;4.53;2.50;;;;;;;13.06;100.00;100343.31;5047723;28;20036;-70
2021/04/05 11:42:59;;;;;;;4.07;2.78;;;;;;;12.39;100.00;100305.56;5047777;28;20119;-69
2021/04/05 11:45:40;;;;;;;3.95;2.67;;;;;;;12.22;100.00;100334.13;5047853;28;20037;-69
2021/04/05 11:48:15;;;;;;;4.07;2.90;;;;;;;12.38;100.00;100319.63;5044730;28;20028;-70
2021/04/05 11:50:43;;;;;;;4.88;3.42;;;;;;;12.43;100.00;100323.53;5047376;28;20025;-71
2021/04/05 11:53:16;;;;;;;3.90;2.88;;;;;;;12.42;100.00;100319.25;5047575;28;20040;-69
2021/04/05 11:55:42;;;;;;;4.68;2.97;;;;;;;12.68;100.00;100316.91;5046371;28;20566;-70